Terminal Aerodrome Forecast
Issued by NWS

Home | Current Version | Previous Version | Text Only | Print | Product List | Glossary On
Versions: 1 2 3 4 5 6 7 8 9 10 11 12 13 14 15 16
000
FTUS45 KRIW 020626 AAA
TAFCPR
TAF AMD
KCPR 020626Z 0206/0306 03007KT P6SM VCTS SCT080CB BKN110
      TEMPO 0207/0208 VRB15G25KT -TSRA BKN050CB
     FM020830 04007KT P6SM SCT110
     FM021900 05010KT P6SM SCT100=

USA.gov is the U.S. government's official web portal to all federal, state and local government web resources and services.